Time;durP1;ratioP1;P1;durP2;ratioP2;P2;SDS_P1;SDS_P2;PMS_P1;PMS_P2;Temp;Humidity;BMP_temperature;BMP_pressure;BME280_temperature;BME280_humidity;BME280_pressure;Samples;Min_cycle;Max_cycle;Signal;HPM_P1;HPM_P2
2023/09/05 00:00:10;;;;;;;5.45;4.50;;;;;;;14.12;55.04;102345.88;4983896;28;20038;-67
2023/09/05 00:02:39;;;;;;;4.32;3.92;;;;;;;14.13;54.96;102347.63;4993178;28;20041;-73
2023/09/05 00:05:07;;;;;;;7.40;4.05;;;;;;;14.10;54.82;102334.59;4981176;28;20500;-73
2023/09/05 00:07:35;;;;;;;4.13;2.75;;;;;;;14.07;54.91;102334.66;4981739;28;20073;-69
2023/09/05 00:10:03;;;;;;;5.13;4.63;;;;;;;14.07;55.07;102330.25;4982004;28;20083;-67
2023/09/05 00:12:29;;;;;;;7.78;4.05;;;;;;;14.11;55.19;102323.16;4981622;28;20044;-68
2023/09/05 00:14:55;;;;;;;3.35;2.90;;;;;;;14.14;54.60;102325.66;4979219;28;20034;-72
2023/09/05 00:17:20;;;;;;;4.82;3.40;;;;;;;14.14;54.63;102323.03;4981869;28;20087;-69
2023/09/05 00:19:46;;;;;;;3.60;2.53;;;;;;;14.03;54.60;102320.78;4978879;28;20038;-71
2023/09/05 00:22:12;;;;;;;5.68;3.67;;;;;;;13.99;54.54;102320.94;4982209;28;20034;-69
2023/09/05 00:24:38;;;;;;;4.95;3.95;;;;;;;13.87;54.86;102319.53;4979146;28;20092;-69
2023/09/05 00:27:07;;;;;;;3.88;3.58;;;;;;;13.83;54.74;102315.25;4982287;28;20908;-69
2023/09/05 00:29:32;;;;;;;5.45;3.55;;;;;;;13.85;54.82;102321.34;4978300;28;20046;-70
2023/09/05 00:31:59;;;;;;;3.47;2.60;;;;;;;13.84;54.75;102309.97;4968215;28;20076;-69
2023/09/05 00:34:33;;;;;;;5.70;3.30;;;;;;;13.70;54.49;102317.44;4984038;28;20497;-68
2023/09/05 00:37:03;;;;;;;3.30;2.67;;;;;;;13.65;54.88;102314.06;4987757;28;20033;-68
2023/09/05 00:39:33;;;;;;;4.07;3.77;;;;;;;13.57;54.99;102314.31;4985901;28;20774;-68
2023/09/05 00:42:03;;;;;;;4.28;3.13;;;;;;;13.49;55.12;102303.97;4986231;28;20041;-69
2023/09/05 00:44:29;;;;;;;4.57;3.80;;;;;;;13.49;55.62;102305.75;4978780;28;20549;-68
2023/09/05 00:46:56;;;;;;;5.68;3.90;;;;;;;13.49;56.22;102306.59;4992362;28;20035;-69
2023/09/05 00:49:27;;;;;;;5.85;4.30;;;;;;;13.57;56.01;102305.56;4987831;28;20129;-68
2023/09/05 00:51:55;;;;;;;5.22;3.30;;;;;;;13.59;55.14;102309.88;4984697;28;21049;-68
2023/09/05 00:54:20;;;;;;;4.47;3.05;;;;;;;13.45;55.22;102310.25;4987385;28;20034;-65
2023/09/05 00:56:47;;;;;;;7.40;3.40;;;;;;;13.47;55.02;102313.69;4993954;28;20357;-65
2023/09/05 00:59:13;;;;;;;4.32;2.95;;;;;;;13.43;55.25;102306.81;4969888;28;20042;-66
2023/09/05 01:01:40;;;;;;;4.65;3.50;;;;;;;13.33;55.18;102305.34;4977582;28;20055;-65
2023/09/05 01:04:06;;;;;;;4.30;3.25;;;;;;;13.21;55.73;102303.06;4960359;28;20034;-68
2023/09/05 01:06:37;;;;;;;7.97;3.80;;;;;;;13.11;55.81;102298.06;4996733;28;20029;-66
2023/09/05 01:09:16;;;;;;;4.53;4.05;;;;;;;13.07;56.40;102299.06;4980568;28;20058;-65
2023/09/05 01:11:42;;;;;;;6.43;4.28;;;;;;;13.10;56.45;102291.09;4977147;28;20038;-66
2023/09/05 01:14:08;;;;;;;6.03;4.20;;;;;;;13.15;56.52;102293.59;4982264;28;21579;-66
2023/09/05 01:16:33;;;;;;;5.93;4.55;;;;;;;13.08;56.10;102292.91;4979751;28;20517;-66
2023/09/05 01:19:01;;;;;;;5.03;4.18;;;;;;;13.10;56.48;102291.09;4977662;28;20111;-65
2023/09/05 01:21:35;;;;;;;4.82;4.15;;;;;;;13.01;56.44;102293.13;4980273;28;20041;-66
2023/09/05 01:24:17;;;;;;;4.53;3.75;;;;;;;12.96;56.62;102288.03;4968191;28;20053;-67
2023/09/05 01:26:43;;;;;;;7.03;4.82;;;;;;;12.91;57.11;102284.63;4962533;28;20129;-68
2023/09/05 01:29:11;;;;;;;5.70;4.70;;;;;;;12.95;57.31;102281.03;4980405;28;20375;-68
2023/09/05 01:31:38;;;;;;;5.85;5.03;;;;;;;12.95;56.88;102275.78;4978644;28;20236;-68
2023/09/05 01:34:04;;;;;;;6.97;5.25;;;;;;;12.98;57.41;102274.84;4979395;28;20481;-75
2023/09/05 01:36:30;;;;;;;10.20;5.10;;;;;;;12.95;57.08;102275.78;4971621;28;20124;-76
2023/09/05 01:38:55;;;;;;;5.97;5.28;;;;;;;12.88;57.69;102276.84;4983145;28;20132;-75
2023/09/05 01:41:21;;;;;;;5.78;4.65;;;;;;;12.88;57.57;102269.00;4980846;28;20231;-75
2023/09/05 01:43:46;;;;;;;8.82;5.65;;;;;;;12.93;57.66;102267.09;4982807;28;20133;-75
2023/09/05 01:46:12;;;;;;;6.82;5.53;;;;;;;12.95;57.69;102264.44;4996154;28;20049;-75
2023/09/05 01:48:37;;;;;;;5.25;4.75;;;;;;;12.97;57.40;102267.88;4979785;28;20121;-76
2023/09/05 01:51:04;;;;;;;6.97;5.63;;;;;;;12.94;57.64;102266.19;4981810;28;20582;-75
2023/09/05 01:53:30;;;;;;;6.13;4.97;;;;;;;12.92;57.73;102265.38;4980010;28;20046;-74
2023/09/05 01:55:55;;;;;;;6.70;5.35;;;;;;;13.03;57.65;102263.31;4987723;28;20111;-75
2023/09/05 01:58:21;;;;;;;6.13;4.65;;;;;;;13.05;57.37;102258.88;4982867;28;20560;-75
2023/09/05 02:00:46;;;;;;;6.15;4.30;;;;;;;13.02;57.50;102251.06;4977705;28;20718;-68
2023/09/05 02:03:11;;;;;;;4.05;3.63;;;;;;;13.01;56.84;102254.63;4983978;28;20046;-70
2023/09/05 02:05:37;;;;;;;5.32;4.35;;;;;;;12.90;56.95;102261.94;4976648;28;20060;-69
2023/09/05 02:08:04;;;;;;;4.32;3.92;;;;;;;12.88;56.58;102266.38;4969586;28;20045;-69
2023/09/05 02:10:30;;;;;;;4.97;3.38;;;;;;;12.92;56.24;102262.75;4984350;28;20034;-72
2023/09/05 02:12:56;;;;;;;4.60;3.33;;;;;;;12.85;55.98;102264.69;4978761;28;20129;-66
2023/09/05 02:15:22;;;;;;;4.25;3.55;;;;;;;12.90;55.58;102261.94;4977658;28;20140;-68
2023/09/05 02:17:47;;;;;;;4.75;3.25;;;;;;;12.78;55.66;102257.91;4980146;28;20043;-65
2023/09/05 02:20:13;;;;;;;6.32;3.50;;;;;;;12.64;55.74;102257.34;4978536;28;20045;-65
2023/09/05 02:22:41;;;;;;;3.97;3.67;;;;;;;12.54;56.15;102253.28;4984770;28;20046;-71
2023/09/05 02:25:07;;;;;;;3.47;2.47;;;;;;;12.47;55.89;102253.44;4993298;28;20032;-70
2023/09/05 02:27:33;;;;;;;5.00;4.03;;;;;;;12.43;56.02;102256.16;4977748;28;20038;-71
2023/09/05 02:30:01;;;;;;;4.57;3.45;;;;;;;12.43;55.92;102248.31;4978538;28;20022;-71
2023/09/05 02:32:29;;;;;;;3.97;3.17;;;;;;;12.35;55.96;102247.63;4979845;28;20031;-71
2023/09/05 02:34:55;;;;;;;4.88;2.65;;;;;;;12.24;55.88;102240.88;4980977;28;20030;-71
2023/09/05 02:37:21;;;;;;;3.20;2.65;;;;;;;12.17;56.00;102246.34;4977674;28;20035;-70
2023/09/05 02:43:39;;;;;;;4.32;2.60;;;;;;;12.09;55.92;102257.03;4993450;28;20582;-68
2023/09/05 02:46:04;;;;;;;4.18;3.33;;;;;;;12.11;55.84;102249.09;5021275;28;20043;-68
2023/09/05 02:48:30;;;;;;;3.67;3.33;;;;;;;12.04;55.96;102248.41;5028026;28;20044;-70
2023/09/05 02:51:03;;;;;;;3.40;3.10;;;;;;;12.00;56.25;102246.75;5055676;28;20663;-70
2023/09/05 02:53:29;;;;;;;4.90;3.40;;;;;;;11.99;56.08;102250.28;5041069;28;20041;-67
2023/09/05 02:55:55;;;;;;;3.80;3.35;;;;;;;11.97;55.88;102249.44;5055426;28;20027;-71
2023/09/05 02:58:20;;;;;;;4.15;2.88;;;;;;;11.90;56.05;102245.25;5033548;28;20136;-69
2023/09/05 03:00:49;;;;;;;4.00;2.72;;;;;;;11.85;56.03;102243.59;5019137;28;20036;-69
2023/09/05 03:03:16;;;;;;;3.28;2.92;;;;;;;11.87;56.39;102241.81;5018543;28;20547;-70
2023/09/05 03:05:43;;;;;;;3.72;3.42;;;;;;;11.90;56.44;102240.88;5021779;28;20526;-70
2023/09/05 03:08:11;;;;;;;3.53;3.22;;;;;;;11.90;56.31;102240.88;5010614;28;20068;-69
2023/09/05 03:10:36;;;;;;;3.63;3.33;;;;;;;11.86;56.12;102240.06;5034165;28;20037;-72
2023/09/05 03:13:02;;;;;;;4.15;2.45;;;;;;;11.83;56.06;102234.06;5026874;28;20040;-73
2023/09/05 03:15:28;;;;;;;4.80;3.63;;;;;;;11.80;56.34;102242.84;5026445;28;20116;-71
2023/09/05 03:17:53;;;;;;;4.15;3.60;;;;;;;11.78;55.97;102241.19;5019313;28;20080;-72
2023/09/05 03:20:19;;;;;;;4.70;3.53;;;;;;;11.71;56.52;102244.78;5013954;28;20067;-72
2023/09/05 03:22:44;;;;;;;4.75;2.95;;;;;;;11.62;56.31;102238.88;5014962;28;20041;-71
2023/09/05 03:25:10;;;;;;;4.68;3.50;;;;;;;11.56;56.18;102227.69;5023638;28;20518;-71
2023/09/05 03:27:38;;;;;;;3.53;2.88;;;;;;;11.53;56.51;102226.00;5018117;28;20041;-71
2023/09/05 03:30:07;;;;;;;4.97;4.27;;;;;;;11.48;56.74;102217.34;5023305;28;20044;-71
2023/09/05 03:32:33;;;;;;;3.55;3.20;;;;;;;11.51;56.52;102214.69;5005254;28;20037;-68
2023/09/05 03:34:59;;;;;;;7.82;3.70;;;;;;;11.54;56.72;102216.38;5008189;28;20506;-67
2023/09/05 03:37:28;;;;;;;6.03;3.47;;;;;;;11.60;56.41;102213.63;5007542;28;20660;-70
2023/09/05 03:39:53;;;;;;;5.65;3.20;;;;;;;11.52;56.59;102218.16;5001375;28;20033;-68
2023/09/05 03:42:19;;;;;;;4.93;3.05;;;;;;;11.51;56.53;102221.66;5025743;28;20541;-69
2023/09/05 03:44:45;;;;;;;5.10;3.20;;;;;;;11.45;56.72;102215.66;5001770;28;20022;-71
2023/09/05 03:47:11;;;;;;;6.05;3.42;;;;;;;11.45;56.46;102207.81;5033087;28;20029;-69
2023/09/05 03:49:36;;;;;;;5.45;4.03;;;;;;;11.46;57.00;102206.06;5019227;28;20056;-70
2023/09/05 03:52:02;;;;;;;6.25;4.35;;;;;;;11.53;57.77;102199.81;5035761;28;20136;-70
2023/09/05 03:54:27;;;;;;;5.35;4.45;;;;;;;11.60;57.45;102190.06;5020904;28;20056;-69
2023/09/05 03:56:53;;;;;;;9.02;5.72;;;;;;;11.60;57.91;102192.66;5017985;28;20038;-70
2023/09/05 03:59:20;;;;;;;8.55;5.10;;;;;;;11.62;58.01;102193.47;5017228;28;20115;-70
2023/09/05 04:01:48;;;;;;;7.38;4.95;;;;;;;11.63;58.07;102189.97;5018189;28;20160;-70
2023/09/05 04:04:14;;;;;;;7.80;5.85;;;;;;;11.65;57.41;102188.19;5019506;28;20159;-69
2023/09/05 04:06:39;;;;;;;7.07;4.53;;;;;;;11.65;57.52;102190.81;5003961;28;20479;-69
2023/09/05 04:09:05;;;;;;;6.20;5.15;;;;;;;11.53;57.36;102188.44;5015359;28;21499;-70
2023/09/05 04:11:30;;;;;;;4.95;4.45;;;;;;;11.54;57.35;102190.19;5021276;28;20026;-70
2023/09/05 04:13:57;;;;;;;6.07;4.57;;;;;;;11.53;57.37;102198.91;5027635;28;20032;-71
2023/09/05 04:16:23;;;;;;;8.55;5.43;;;;;;;11.51;57.34;102205.94;5031839;28;20090;-74
2023/09/05 04:18:48;;;;;;;5.63;4.75;;;;;;;11.45;57.10;102210.44;4996837;28;20086;-69
2023/09/05 04:21:14;;;;;;;5.05;4.32;;;;;;;11.39;57.09;102215.81;5022896;28;20162;-75
2023/09/05 04:23:39;;;;;;;5.75;4.13;;;;;;;11.32;57.16;102214.22;5023708;28;20120;-74
2023/09/05 04:26:05;;;;;;;7.25;5.07;;;;;;;11.22;57.20;102210.94;5031508;28;20064;-72
2023/09/05 04:28:31;;;;;;;7.22;5.30;;;;;;;11.14;57.46;102215.47;5040911;28;20546;-74
2023/09/05 04:31:04;;;;;;;5.10;4.00;;;;;;;11.21;57.47;102208.34;5040526;28;20021;-68
2023/09/05 04:33:31;;;;;;;5.85;4.55;;;;;;;11.20;57.37;102207.50;5027465;28;20498;-68
2023/09/05 04:35:58;;;;;;;5.68;4.07;;;;;;;11.32;57.38;102211.59;5007383;28;20043;-70
2023/09/05 04:38:24;;;;;;;5.30;4.68;;;;;;;11.35;56.97;102211.56;5045892;28;20039;-70
2023/09/05 04:40:50;;;;;;;5.80;4.85;;;;;;;11.32;56.99;102208.97;5046201;28;20033;-68
2023/09/05 04:43:15;;;;;;;4.85;4.05;;;;;;;11.32;57.13;102208.97;5039261;28;20039;-69
2023/09/05 04:45:41;;;;;;;6.00;4.43;;;;;;;11.29;56.91;102211.69;5042921;28;20033;-69
2023/09/05 04:48:07;;;;;;;7.22;4.18;;;;;;;11.30;56.98;102213.38;5031063;28;20045;-75
2023/09/05 04:50:33;;;;;;;6.78;5.10;;;;;;;11.33;56.73;102220.31;5024710;28;20103;-74
2023/09/05 04:52:59;;;;;;;5.53;4.45;;;;;;;11.36;56.76;102228.97;5029791;28;20032;-74
2023/09/05 04:55:25;;;;;;;4.63;4.20;;;;;;;11.33;56.95;102229.06;5038967;28;20028;-69
2023/09/05 04:57:51;;;;;;;6.57;5.20;;;;;;;11.27;57.00;102223.94;5042856;28;20097;-72
2023/09/05 05:00:18;;;;;;;6.53;4.82;;;;;;;11.28;56.83;102223.03;5038847;28;20769;-74
2023/09/05 05:02:44;;;;;;;4.82;3.85;;;;;;;11.35;56.81;102224.66;5010327;28;20614;-74
2023/09/05 05:05:11;;;;;;;4.80;4.20;;;;;;;11.45;56.38;102233.16;5028755;28;20187;-74
2023/09/05 05:07:38;;;;;;;4.78;4.28;;;;;;;11.43;56.32;102225.31;5027506;28;20036;-71
2023/09/05 05:10:04;;;;;;;6.80;4.25;;;;;;;11.38;56.19;102213.25;5029463;28;20073;-73
2023/09/05 05:12:31;;;;;;;5.40;4.63;;;;;;;11.37;56.40;102201.88;5040591;28;20048;-71
2023/09/05 05:14:57;;;;;;;6.70;4.55;;;;;;;11.45;56.57;102207.81;5021429;28;20033;-70
2023/09/05 05:17:22;;;;;;;7.38;5.00;;;;;;;11.56;57.09;102209.34;5038398;28;20140;-68
2023/09/05 05:19:48;;;;;;;8.25;5.93;;;;;;;11.63;56.69;102218.78;5029029;28;20107;-68
2023/09/05 05:22:13;;;;;;;5.78;4.88;;;;;;;11.81;56.04;102215.75;5039341;28;20950;-70
2023/09/05 05:24:39;;;;;;;6.13;5.10;;;;;;;11.83;56.44;102208.72;5041679;28;20442;-73
2023/09/05 05:27:06;;;;;;;4.93;4.40;;;;;;;11.91;56.32;102220.75;5040967;28;20052;-73
2023/09/05 05:29:32;;;;;;;4.38;3.72;;;;;;;11.91;55.97;102220.75;5042715;28;20056;-67
2023/09/05 05:32:01;;;;;;;4.88;4.38;;;;;;;12.01;55.86;102232.75;5040588;28;20423;-66
2023/09/05 05:34:26;;;;;;;9.50;4.65;;;;;;;11.99;55.63;102232.78;5038407;28;20052;-66
2023/09/05 05:36:52;;;;;;;5.28;3.90;;;;;;;12.03;56.04;102230.97;5040684;28;20699;-66
2023/09/05 05:39:21;;;;;;;9.50;5.32;;;;;;;12.22;55.93;102234.84;5039586;28;20051;-67
2023/09/05 05:41:48;;;;;;;7.28;4.70;;;;;;;12.56;55.81;102233.97;5037118;28;20039;-67
2023/09/05 05:44:14;;;;;;;8.05;5.50;;;;;;;12.69;55.30;102231.88;5022935;28;20098;-66
2023/09/05 05:46:41;;;;;;;6.05;5.35;;;;;;;12.82;55.63;102224.53;5040943;28;20035;-68
2023/09/05 05:49:07;;;;;;;8.48;6.10;;;;;;;12.82;55.30;102216.66;5037970;28;20819;-69
2023/09/05 05:51:33;;;;;;;9.95;6.22;;;;;;;12.86;55.86;102215.69;5008574;28;20025;-68
2023/09/05 05:53:58;;;;;;;8.02;5.75;;;;;;;12.97;56.13;102211.00;5039346;28;20039;-67
2023/09/05 05:56:24;;;;;;;6.47;5.25;;;;;;;13.11;56.47;102211.44;5038383;28;20044;-68
2023/09/05 05:58:50;;;;;;;9.88;5.75;;;;;;;13.29;55.96;102206.53;5039471;28;20443;-67
2023/09/05 06:01:18;;;;;;;8.18;6.38;;;;;;;13.75;55.63;102199.03;5034608;28;20032;-66
2023/09/05 06:03:44;;;;;;;8.35;6.20;;;;;;;15.57;51.94;102192.47;5035619;28;20064;-65
2023/09/05 06:06:09;;;;;;;10.70;5.55;;;;;;;17.99;46.28;102192.16;5022760;28;20133;-67
2023/09/05 06:08:35;;;;;;;8.32;4.60;;;;;;;19.99;42.32;102191.88;5017721;28;20513;-67
2023/09/05 06:11:00;;;;;;;7.25;4.07;;;;;;;21.50;38.10;102196.69;5023264;28;20028;-66
2023/09/05 06:13:26;;;;;;;4.72;4.10;;;;;;;22.86;34.24;102197.13;5025322;28;20491;-66
2023/09/05 06:15:52;;;;;;;5.88;3.65;;;;;;;24.12;33.42;102187.78;5037393;28;20029;-66
2023/09/05 06:18:18;;;;;;;4.10;3.22;;;;;;;24.72;30.60;102184.94;5019298;28;20041;-67
2023/09/05 06:20:44;;;;;;;6.18;4.07;;;;;;;24.50;30.94;102186.63;5018181;28;20199;-67
2023/09/05 06:23:10;;;;;;;6.10;3.25;;;;;;;24.47;30.17;102186.88;5035244;28;20756;-67
2023/09/05 06:25:35;;;;;;;7.68;3.75;;;;;;;24.01;31.24;102191.31;5024986;28;20028;-66
2023/09/05 06:28:02;;;;;;;4.95;3.05;;;;;;;23.81;31.37;102189.25;5027960;28;20043;-64
2023/09/05 06:30:27;;;;;;;6.40;3.28;;;;;;;24.36;29.91;102192.19;5039760;28;20021;-65
2023/09/05 06:32:53;;;;;;;6.80;2.88;;;;;;;23.78;31.07;102187.69;5025523;28;20057;-67
2023/09/05 06:35:19;;;;;;;3.83;3.00;;;;;;;23.88;30.60;102173.66;5039883;28;20041;-67
2023/09/05 06:37:45;;;;;;;5.38;3.40;;;;;;;24.20;30.82;102173.84;5042230;28;20039;-65
2023/09/05 06:40:15;;;;;;;5.75;3.13;;;;;;;24.42;29.50;102184.56;5041708;28;20033;-66
2023/09/05 06:42:43;;;;;;;3.90;3.50;;;;;;;24.90;30.28;102182.59;5038445;28;20044;-66
2023/09/05 06:45:10;;;;;;;5.35;3.22;;;;;;;25.99;28.91;102181.59;5039915;28;20064;-65
2023/09/05 06:47:36;;;;;;;8.45;3.75;;;;;;;27.17;27.39;102181.09;5034379;28;20040;-65
2023/09/05 06:50:06;;;;;;;4.63;3.22;;;;;;;26.71;26.90;102183.38;5023195;28;20447;-66
2023/09/05 06:52:32;;;;;;;6.13;2.22;;;;;;;27.31;26.67;102186.03;5021700;28;20033;-66
2023/09/05 06:54:58;;;;;;;6.55;2.95;;;;;;;26.99;27.13;102187.09;5035419;28;20039;-65
2023/09/05 06:57:25;;;;;;;3.00;2.45;;;;;;;26.77;27.29;102184.66;5020034;28;20036;-68
2023/09/05 06:59:50;;;;;;;5.93;2.90;;;;;;;26.44;29.01;102182.09;5038728;28;20036;-67
2023/09/05 07:02:16;;;;;;;2.90;2.20;;;;;;;27.00;27.22;102183.44;5011117;28;20044;-67
2023/09/05 07:04:42;;;;;;;3.88;2.80;;;;;;;26.97;27.42;102188.25;5039368;28;20039;-66
2023/09/05 07:07:08;;;;;;;4.32;3.42;;;;;;;26.69;27.39;102191.56;5042263;28;20024;-66
2023/09/05 07:09:34;;;;;;;3.88;2.70;;;;;;;27.35;27.50;102195.50;5015500;28;20553;-66
2023/09/05 07:12:00;;;;;;;4.75;2.53;;;;;;;28.04;26.38;102204.38;5022295;28;20036;-65
2023/09/05 07:14:26;;;;;;;3.08;2.65;;;;;;;28.19;27.08;102199.38;5018022;28;20359;-67
2023/09/05 07:16:51;;;;;;;2.05;1.75;;;;;;;28.54;25.50;102201.38;5017967;28;20681;-67
2023/09/05 07:19:26;;;;;;;3.47;2.15;;;;;;;29.29;23.94;102201.25;5019536;28;20636;-66
2023/09/05 07:21:53;;;;;;;3.45;2.60;;;;;;;28.90;24.48;102201.50;4996170;28;20783;-66
2023/09/05 07:24:21;;;;;;;4.70;2.55;;;;;;;28.46;25.24;102204.81;5007423;28;20041;-67
2023/09/05 07:26:46;;;;;;;4.35;2.83;;;;;;;28.06;25.52;102202.38;5016219;28;20064;-67
2023/09/05 07:29:12;;;;;;;3.40;2.92;;;;;;;26.86;27.10;102203.44;5037171;28;20120;-67
2023/09/05 07:31:42;;;;;;;3.72;2.20;;;;;;;27.06;26.87;102204.34;5039438;28;20116;-66
2023/09/05 07:34:08;;;;;;;7.95;2.85;;;;;;;27.43;26.65;102206.41;5022929;28;20961;-66
2023/09/05 07:36:37;;;;;;;3.60;3.25;;;;;;;27.41;26.66;102202.16;5039922;28;21791;-65
2023/09/05 07:39:05;;;;;;;3.70;2.65;;;;;;;26.55;28.21;102199.94;5006977;28;20143;-66
2023/09/05 07:41:33;;;;;;;4.22;2.65;;;;;;;26.28;28.90;102198.69;5037938;28;20495;-65
2023/09/05 07:43:59;;;;;;;8.73;2.53;;;;;;;26.60;28.00;102195.06;5041649;28;20045;-65
2023/09/05 07:46:27;;;;;;;3.40;1.95;;;;;;;26.97;27.65;102196.28;5038887;28;20029;-64
2023/09/05 07:48:52;;;;;;;3.22;2.75;;;;;;;27.17;27.65;102199.88;5054889;28;20076;-64
2023/09/05 07:51:22;;;;;;;2.15;1.95;;;;;;;28.11;26.70;102197.41;5038298;28;20189;-65
2023/09/05 07:53:58;;;;;;;7.35;2.75;;;;;;;28.49;25.45;102193.75;5039548;28;20041;-65
2023/09/05 07:56:24;;;;;;;3.17;2.72;;;;;;;29.18;25.34;102205.03;5045818;28;20044;-65
2023/09/05 07:58:49;;;;;;;4.55;1.98;;;;;;;29.78;23.70;102201.69;5039406;28;20040;-65
2023/09/05 08:01:17;;;;;;;3.95;2.17;;;;;;;30.02;23.54;102209.09;5035804;28;20032;-65
2023/09/05 08:03:42;;;;;;;2.33;2.08;;;;;;;29.90;24.17;102204.97;5040466;28;20060;-65
2023/09/05 08:06:08;;;;;;;2.65;2.03;;;;;;;30.35;23.20;102202.03;5040347;28;20056;-65
2023/09/05 08:08:34;;;;;;;3.47;1.88;;;;;;;31.64;22.71;102202.75;5052030;28;20549;-64
2023/09/05 08:10:59;;;;;;;4.20;1.90;;;;;;;31.91;22.08;102201.53;5038708;28;20040;-65
2023/09/05 08:13:25;;;;;;;2.25;1.67;;;;;;;32.25;21.52;102203.97;5021103;28;20747;-66
2023/09/05 08:15:51;;;;;;;1.95;1.70;;;;;;;31.68;22.28;102202.22;5040339;28;20028;-65
2023/09/05 08:18:17;;;;;;;2.03;1.83;;;;;;;31.67;22.24;102200.53;5037404;28;20293;-65
2023/09/05 08:20:42;;;;;;;2.28;1.40;;;;;;;31.88;21.94;102197.31;5037873;28;20029;-65
2023/09/05 08:23:10;;;;;;;1.67;1.33;;;;;;;32.03;22.05;102198.31;5036473;28;20075;-65
2023/09/05 08:25:35;;;;;;;4.15;2.05;;;;;;;31.71;22.00;102199.19;5035400;28;20128;-65
2023/09/05 08:28:01;;;;;;;2.80;2.15;;;;;;;31.70;23.19;102212.88;5040733;28;20041;-65
2023/09/05 08:30:28;;;;;;;3.90;2.08;;;;;;;31.58;22.26;102202.41;5038481;28;20453;-66
2023/09/05 08:33:01;;;;;;;3.67;1.90;;;;;;;30.97;22.97;102206.34;5025733;28;20040;-66
2023/09/05 08:35:29;;;;;;;2.35;1.73;;;;;;;31.99;21.83;102199.69;5036832;28;20124;-65
2023/09/05 08:37:57;;;;;;;3.22;2.22;;;;;;;31.19;23.03;102197.63;5043582;28;20487;-65
2023/09/05 08:40:23;;;;;;;3.03;2.13;;;;;;;30.79;23.41;102196.50;5037455;28;20496;-65
2023/09/05 08:42:51;;;;;;;1.90;1.80;;;;;;;29.52;24.40;102199.75;5037770;28;20047;-65
2023/09/05 08:45:21;;;;;;;2.63;1.58;;;;;;;29.33;25.19;102194.56;5038851;28;20040;-65
2023/09/05 08:47:47;;;;;;;2.83;2.35;;;;;;;29.63;24.47;102195.19;5038913;28;20668;-65
2023/09/05 08:50:13;;;;;;;1.50;1.38;;;;;;;29.61;25.54;102199.88;5040290;28;20033;-66
2023/09/05 08:52:42;;;;;;;3.83;2.20;;;;;;;29.06;25.72;102198.13;5035499;28;20048;-65
2023/09/05 08:55:08;;;;;;;2.72;2.35;;;;;;;29.28;25.70;102204.94;5046074;28;20630;-65
2023/09/05 08:57:35;;;;;;;5.50;1.83;;;;;;;28.90;25.96;102206.88;5033990;28;20056;-65
2023/09/05 09:00:06;;;;;;;2.78;2.20;;;;;;;29.08;25.90;102205.06;5041052;28;20029;-66
2023/09/05 09:02:35;;;;;;;4.38;2.08;;;;;;;27.38;28.67;102207.78;5052343;28;20037;-63
2023/09/05 09:05:01;;;;;;;2.47;2.17;;;;;;;26.97;29.31;102205.19;5045004;28;20032;-66
2023/09/05 09:07:30;;;;;;;3.33;1.83;;;;;;;26.55;29.48;102205.28;5048686;28;20075;-64
2023/09/05 09:10:14;;;;;;;3.60;2.22;;;;;;;26.49;29.55;102211.19;5044141;28;20063;-64
2023/09/05 09:12:40;;;;;;;4.20;1.90;;;;;;;26.86;30.00;102208.81;5040097;28;20388;-64
2023/09/05 09:15:09;;;;;;;6.32;2.35;;;;;;;26.44;30.14;102208.91;5039671;28;20043;-64
2023/09/05 09:17:42;;;;;;;4.55;1.80;;;;;;;27.00;29.44;102204.03;5034701;28;20048;-64
2023/09/05 09:20:12;;;;;;;1.90;1.58;;;;;;;26.88;29.14;102206.84;5039637;28;20036;-65
2023/09/05 09:22:41;;;;;;;3.60;1.87;;;;;;;26.58;28.52;102210.44;5035900;28;20036;-64
2023/09/05 09:25:12;;;;;;;3.78;1.75;;;;;;;26.26;30.63;102206.00;5040805;28;20039;-64
2023/09/05 09:27:39;;;;;;;2.92;2.20;;;;;;;26.51;29.86;102198.50;5036644;28;20068;-64
2023/09/05 09:30:09;;;;;;;8.18;2.50;;;;;;;26.48;31.30;102204.97;5038500;28;20036;-64
2023/09/05 09:32:38;;;;;;;6.20;1.70;;;;;;;26.93;29.58;102203.75;5030760;28;20052;-64
2023/09/05 09:35:06;;;;;;;2.08;1.65;;;;;;;27.01;28.38;102190.50;5038665;28;20392;-64
2023/09/05 09:37:33;;;;;;;2.60;1.55;;;;;;;26.88;28.66;102187.22;5048325;28;20036;-64
2023/09/05 09:40:01;;;;;;;2.08;1.50;;;;;;;26.93;29.08;102195.69;5037015;28;20079;-63
2023/09/05 09:42:27;;;;;;;2.78;1.30;;;;;;;26.66;28.57;102186.47;5035705;28;20490;-64
2023/09/05 09:44:54;;;;;;;5.15;1.92;;;;;;;26.71;30.38;102188.72;5035340;28;20044;-64
2023/09/05 09:47:20;;;;;;;3.75;1.65;;;;;;;26.96;28.79;102182.03;5036922;28;20055;-64
2023/09/05 09:49:50;;;;;;;4.40;2.72;;;;;;;27.08;29.66;102182.75;5034211;28;20025;-67
2023/09/05 09:52:20;;;;;;;4.33;2.00;;;;;;;27.44;27.74;102180.41;5035969;28;20048;-64
2023/09/05 09:54:47;;;;;;;3.00;1.98;;;;;;;27.16;29.23;102168.66;5034116;28;20051;-66
2023/09/05 09:57:18;;;;;;;2.70;1.20;;;;;;;27.40;28.17;102171.75;5038020;28;20687;-64
2023/09/05 09:59:49;;;;;;;3.35;1.50;;;;;;;27.09;28.60;102165.66;5034206;28;20032;-63
2023/09/05 10:02:15;;;;;;;3.53;1.45;;;;;;;26.90;28.88;102166.47;5035900;28;20060;-63
2023/09/05 10:04:43;;;;;;;4.25;1.70;;;;;;;26.84;29.80;102167.88;5041383;28;20130;-64
2023/09/05 10:07:14;;;;;;;2.33;1.63;;;;;;;27.05;29.10;102157.03;5046063;28;20037;-64
2023/09/05 10:09:40;;;;;;;;;;;;;;;27.03;29.63;102159.03;5037628;28;20047;-63
2023/09/05 10:12:07;;;;;;;6.65;2.63;;;;;;;26.75;31.54;102157.13;5036708;28;19913;-65
2023/09/05 10:14:36;;;;;;;2.15;1.85;;;;;;;26.94;29.92;102159.88;5030640;28;20119;-64
2023/09/05 10:17:03;;;;;;;3.30;2.15;;;;;;;26.84;29.28;102153.63;5041872;28;20041;-64
2023/09/05 10:19:29;;;;;;;4.82;2.00;;;;;;;26.58;31.30;102151.47;5017225;28;20051;-64
2023/09/05 10:21:57;;;;;;;3.28;1.88;;;;;;;26.89;29.60;102154.03;5034771;28;20048;-64
2023/09/05 10:24:25;;;;;;;4.45;1.60;;;;;;;27.20;30.31;102151.28;5052252;28;20047;-64
2023/09/05 10:26:51;;;;;;;2.35;1.50;;;;;;;27.48;29.15;102155.81;5036634;28;20245;-64
2023/09/05 10:29:35;;;;;;;3.95;2.15;;;;;;;26.95;29.23;102158.03;5035839;28;20041;-64
2023/09/05 10:32:01;;;;;;;2.17;1.73;;;;;;;27.58;28.06;102154.94;5037403;28;20048;-64
2023/09/05 10:34:48;;;;;;;5.70;1.58;;;;;;;28.01;29.68;102157.16;5033593;28;20079;-64
2023/09/05 10:37:26;;;;;;;3.22;1.45;;;;;;;28.38;27.84;102150.94;5036670;28;20067;-63
2023/09/05 10:39:54;;;;;;;1.50;1.17;;;;;;;28.28;27.36;102153.69;5035866;28;20116;-63
2023/09/05 10:42:28;;;;;;;2.97;1.13;;;;;;;28.03;27.38;102155.16;5034144;28;20044;-64
2023/09/05 10:44:53;;;;;;;3.28;2.05;;;;;;;27.88;27.67;102144.03;5036635;28;20032;-64
2023/09/05 10:47:35;;;;;;;3.85;0.93;;;;;;;27.76;28.59;102149.72;5037002;28;20407;-63
2023/09/05 10:50:06;;;;;;;2.17;1.15;;;;;;;28.16;28.13;102144.09;5026707;28;20029;-64
2023/09/05 10:52:32;;;;;;;;;;;;;;;28.43;29.10;102145.09;5035836;28;20680;-64
2023/09/05 10:54:59;;;;;;;2.97;1.42;;;;;;;28.86;27.73;102141.78;5037811;28;19959;-65
2023/09/05 10:57:38;;;;;;;3.42;0.85;;;;;;;28.68;27.73;102141.75;5035269;28;20072;-63
2023/09/05 11:00:26;;;;;;;2.35;1.00;;;;;;;28.81;27.20;102135.13;5036484;28;20518;-64
2023/09/05 11:02:55;;;;;;;3.60;0.95;;;;;;;28.72;28.12;102137.78;5023453;28;20033;-63
2023/09/05 11:05:24;;;;;;;5.32;0.70;;;;;;;28.68;26.57;102133.69;5051883;28;20041;-64
2023/09/05 11:07:50;;;;;;;1.60;1.02;;;;;;;28.68;26.30;102125.63;5039303;28;20048;-63
2023/09/05 11:10:26;;;;;;;1.75;0.68;;;;;;;28.34;28.02;102126.22;5034921;28;20099;-64
2023/09/05 11:12:52;;;;;;;2.95;1.10;;;;;;;28.09;28.82;102119.63;5036158;28;20043;-63
2023/09/05 11:15:31;;;;;;;3.03;0.93;;;;;;;27.80;28.22;102110.81;5040476;28;20575;-64
2023/09/05 11:18:05;;;;;;;2.03;1.05;;;;;;;28.23;27.83;102118.31;5041060;28;20495;-63
2023/09/05 11:20:49;;;;;;;3.28;1.23;;;;;;;27.87;27.78;102112.75;5052551;28;20029;-64
2023/09/05 11:23:25;;;;;;;3.25;0.82;;;;;;;28.12;27.39;102105.94;5043040;28;20094;-64
2023/09/05 11:25:56;;;;;;;1.88;1.15;;;;;;;28.12;27.36;102110.44;5038206;28;21702;-64
2023/09/05 11:28:23;;;;;;;1.70;1.30;;;;;;;28.34;28.98;102103.84;5027955;28;20491;-67
2023/09/05 11:30:51;;;;;;;1.60;0.82;;;;;;;28.73;27.42;102099.09;5038488;28;20029;-64